Airfield :
LOGIN :

Register | Disclaimer

   EN    FR    IT 

 










Legend :    VFR   Marginal VFR   IFR   Intensive IFR   Very Intensive IFR
Visi :
Ceiling :
>= 8 km
>= 3000ft
5 to 8 km
1000 to 3000 ft
1500m to 5 km
500 to 1000 ft
800 to 1500m
200 to 500 ft
< 800m
< 200 ft
Symbols :   Thunderstorms  Fog  Heavy snow  Heavy precipitations  Wind > 20 kt
SIGMETs :     Misc.  Thunderstorms  Icing  Turbulence  Mountain Waves  Volcanic Ashes







- Airport Elevation : 157 ft
- IATA code : LIL
- Download approach charts


LFQQ - Lille Lesquin

CURRENT METAR :
  • 182100Z AUTO 24007KT 8000 OVC029 07/07 Q1018 BECMG 30010KT

EXPIRED METARs :
  • 182030Z AUTO 25006KT 9000 -RA OVC025 07/07 Q1018 NOSIG
  • 182000Z AUTO 29006KT 6000 -RA SCT008 SCT015 OVC023 08/07 Q1019 NOSIG
  • 181930Z AUTO 33004KT 6000 -RA FEW009 OVC018 08/07 Q1019 NOSIG
  • 181900Z AUTO 33008KT 6000 -RA SCT005 BKN010 OVC015 08/07 Q1019 BECMG BKN025
  • 181830Z AUTO 28005KT 250V310 4100 -RA BR OVC003 09/08 Q1019 BECMG 9999 NSW BKN025

TAF AMD TAF LFQQ
Valid from the 18 at 18:00 until the 20 at 00:00 UTC


181807Z 1818/1924 23008KT 3000 RA BKN003 OVC013
BECMG 1818/1820 30010KT 9999 NSW BKN025
ATIS : +33 3 20 16 19 54
No reported NOTAMs for that airfield.
1 SIGMET reported for the Paris FIR (LFFF) :
 
Severe icing
LFFF SIGMET 1 VALID 182100/190100 LFPW
LFFF PARIS FIR/UIR SEV ICE OBS WI N5045 E00315 - N4930 E00600 - N4915 E00515 - N5000 E00300 FL080/220 MOV SE 20KT NC=



MET'MAP, your aeronautical weather chart ! - Copyright ORBIFLY December 2007 - Disclaimer

ORBIFLY MET'MAP TEAM :

Programming & Development : Alexandra Zaïnal
Concept & Development : Baudouin d'Aumeries
Co-Development & Prog : Marc-Olivier Méhu
Technical & hardware support : Manuel Goepfert

Contact : metmap@orbifly.com




SOURCES & CREDITS :

   NOAA